Sadiq Abubakar III International Airport

METAR DNSO TAF DNSO
37 °C
°C
-
°C
22m
Alter
16:22:05
LT
15:22
UTC
0 ft

1.000

2.000

3.000

4.000

5.000

MVFR
<?= Yii::t('app', 'Wind direction') ?> <?= Yii::t('app', 'of'); ?>
080°
18:42
Sonne unter
15%
Luftfeuchtigkeit
Windscherung
Geschlossen/Schnee
RWY-Sichtweite
RWY Zustand
Vert. Sichtweite
Min. Sichtbarkeit
CAVOK
Trend
Korrektur
Besonderer Bericht
1010 hPa
QNH
METAR DNSO 071500Z 08014KT 7000 NSC 37/06 Q1010
Klar
1 kt
1 kt
16:00
MVFR
12 kt
17:00
MVFR
12 kt
18:00
MVFR
12 kt
19:00
MVFR
12 kt
20:00
MVFR
12 kt
21:00
MVFR
12 kt
22:00
MVFR
12 kt
7 km
Sichtweite
Keine
Wolkendecke
14 kt
Wind
metar-taf.com/DNSO

Metar-Taf.com

Visueller Decoder

Wir und Dritte verfolgen dein Internetverhalten auf unserer Website mit Cookies. Wenn du fortfährst, gehen wir davon aus, dass du mit unserer Cookie-Richtlinie einverstanden bist.